createdAt,value
2022-12-14T00:04:24.646Z,18.00
2022-12-14T00:10:28.004Z,19.15
2022-12-14T00:16:37.176Z,19.35
2022-12-14T00:22:44.376Z,17.33
2022-12-14T00:35:32.915Z,19.10
2022-12-14T00:41:35.259Z,17.20
2022-12-14T00:47:40.691Z,16.85
2022-12-14T00:53:44.740Z,18.73
2022-12-14T00:59:46.562Z,16.92
2022-12-14T01:05:49.108Z,15.98
2022-12-14T01:11:51.946Z,15.65
2022-12-14T01:17:53.847Z,16.20
2022-12-14T01:24:02.085Z,17.52
2022-12-14T01:30:04.831Z,17.02
2022-12-14T01:36:12.398Z,16.90
2022-12-14T01:42:15.910Z,16.83
2022-12-14T01:48:18.203Z,16.20
2022-12-14T01:54:20.822Z,13.38
2022-12-14T02:00:23.290Z,13.00
2022-12-14T02:06:29.887Z,14.60
2022-12-14T02:12:47.975Z,13.77
2022-12-14T02:18:49.784Z,12.52
2022-12-14T02:25:00.877Z,11.02
2022-12-14T02:31:27.997Z,13.25
2022-12-14T02:44:18.812Z,12.32
2022-12-14T02:50:23.887Z,14.20
2022-12-14T02:56:36.676Z,24.77
2022-12-14T03:02:42.210Z,64.82
2022-12-14T03:08:47.096Z,12.43
2022-12-14T03:14:52.382Z,17.20
2022-12-14T03:20:56.362Z,12.82
2022-12-14T03:27:25.520Z,14.60
2022-12-14T03:33:29.995Z,13.95
2022-12-14T03:39:35.044Z,13.55
2022-12-14T03:46:07.880Z,14.88
2022-12-14T03:52:36.493Z,13.73
2022-12-14T03:59:00.321Z,15.18
2022-12-14T04:05:30.954Z,14.65
2022-12-14T04:11:57.881Z,15.75
2022-12-14T04:18:24.518Z,13.88
2022-12-14T04:25:12.973Z,13.18
2022-12-14T04:31:19.263Z,16.63
2022-12-14T04:37:24.714Z,14.10
2022-12-14T04:43:34.249Z,14.52
2022-12-14T04:49:50.275Z,16.88
2022-12-14T04:56:26.845Z,14.37
2022-12-14T05:03:04.012Z,13.40
2022-12-14T05:09:11.608Z,13.35
2022-12-14T05:15:23.322Z,12.82
2022-12-14T05:21:43.689Z,11.25
2022-12-14T05:27:46.192Z,11.90
2022-12-14T05:33:47.973Z,12.05
2022-12-14T05:39:49.886Z,12.05
2022-12-14T05:45:58.879Z,12.05
2022-12-14T05:52:00.888Z,11.65
2022-12-14T05:58:02.671Z,12.10
2022-12-14T06:04:04.746Z,12.40
2022-12-14T06:10:06.924Z,11.75
2022-12-14T06:16:21.169Z,13.68
2022-12-14T06:22:23.101Z,12.77
2022-12-14T06:28:24.954Z,13.05
2022-12-14T06:34:28.799Z,12.27
2022-12-14T06:40:30.681Z,13.23
2022-12-14T06:46:33.262Z,12.18
2022-12-14T06:52:35.094Z,12.02
2022-12-14T06:58:37.390Z,11.98
2022-12-14T07:04:41.355Z,13.38
2022-12-14T07:10:43.148Z,12.60
2022-12-14T07:16:48.353Z,12.73
2022-12-14T07:22:50.779Z,11.50
2022-12-14T07:28:53.137Z,12.50
2022-12-14T07:34:54.957Z,12.70
2022-12-14T07:41:05.688Z,11.48
2022-12-14T07:47:07.612Z,12.07
2022-12-14T07:53:09.418Z,11.70
2022-12-14T07:59:15.308Z,11.23
2022-12-14T08:05:17.259Z,11.50
2022-12-14T08:11:22.164Z,10.98
2022-12-14T08:17:23.978Z,11.15
2022-12-14T08:23:25.826Z,10.73
2022-12-14T08:29:27.611Z,12.15
2022-12-14T08:35:29.433Z,10.50
2022-12-14T08:41:31.588Z,10.07
2022-12-14T08:47:33.379Z,10.90
2022-12-14T08:53:36.602Z,10.55
2022-12-14T09:00:00.872Z,9.45
2022-12-14T09:06:06.496Z,10.00
2022-12-14T09:12:08.340Z,10.30
2022-12-14T09:18:10.361Z,10.73
2022-12-14T09:24:12.161Z,10.43
2022-12-14T09:30:14.030Z,10.82
2022-12-14T09:36:27.813Z,10.27
2022-12-14T09:42:43.312Z,10.80
2022-12-14T09:48:53.569Z,10.55
2022-12-14T09:54:57.035Z,12.35
2022-12-14T10:01:22.057Z,13.88
2022-12-14T10:07:38.845Z,11.82
2022-12-14T10:13:59.623Z,11.30
2022-12-14T10:20:14.736Z,10.23
2022-12-14T10:26:19.881Z,9.45
2022-12-14T10:32:30.201Z,10.35
2022-12-14T10:38:36.830Z,11.07
2022-12-14T10:45:39.583Z,10.43
2022-12-14T10:51:39.713Z,9.55
2022-12-14T10:57:41.626Z,12.48
2022-12-14T11:03:53.675Z,11.88
2022-12-14T11:10:20.365Z,11.85
2022-12-14T11:16:37.667Z,11.20
2022-12-14T11:22:47.956Z,11.48
2022-12-14T11:28:58.563Z,11.25
2022-12-14T11:35:00.487Z,11.07
2022-12-14T11:41:10.762Z,11.45
2022-12-14T11:47:15.595Z,11.65
2022-12-14T11:53:19.801Z,11.93
2022-12-14T11:59:22.733Z,12.45
2022-12-14T12:05:24.757Z,12.55
2022-12-14T12:11:34.710Z,12.80
2022-12-14T12:17:43.247Z,11.98
2022-12-14T12:23:54.976Z,11.63
2022-12-14T12:30:07.108Z,11.32
2022-12-14T12:36:09.861Z,12.10
2022-12-14T12:42:32.998Z,11.50
2022-12-14T12:48:54.302Z,11.88
2022-12-14T12:55:01.566Z,15.98
2022-12-14T13:07:42.085Z,11.50
2022-12-14T13:13:49.409Z,11.70
2022-12-14T13:19:54.953Z,13.20
2022-12-14T13:26:56.650Z,14.07
2022-12-14T13:33:08.900Z,15.07
2022-12-14T13:39:10.674Z,17.65
2022-12-14T13:45:43.556Z,16.52
2022-12-14T13:51:50.460Z,18.05
2022-12-14T14:04:14.154Z,16.02
2022-12-14T14:10:36.231Z,17.85
2022-12-14T14:16:44.185Z,17.23
2022-12-14T14:23:15.934Z,16.40
2022-12-14T14:29:24.776Z,15.38
2022-12-14T14:35:37.814Z,15.27
2022-12-14T14:41:43.490Z,18.02
2022-12-14T14:47:56.508Z,17.08
2022-12-14T15:01:16.286Z,14.95
2022-12-14T15:07:42.267Z,13.18
2022-12-14T15:14:06.707Z,13.73
2022-12-14T15:20:24.558Z,14.07
2022-12-14T15:26:33.850Z,13.95
2022-12-14T15:32:35.754Z,14.85
2022-12-14T15:38:37.932Z,15.68
2022-12-14T15:44:48.167Z,14.68
2022-12-14T15:50:55.119Z,14.48
2022-12-14T15:56:58.762Z,13.93
2022-12-14T16:03:08.982Z,13.65
2022-12-14T16:09:32.305Z,14.10
2022-12-14T16:15:34.525Z,14.50
2022-12-14T16:21:36.591Z,13.85
2022-12-14T16:27:42.372Z,12.50
2022-12-14T16:33:44.651Z,11.35
2022-12-14T16:39:49.591Z,14.40
2022-12-14T16:46:03.352Z,12.70
2022-12-14T16:52:21.248Z,12.93
2022-12-14T16:58:23.239Z,13.18
2022-12-14T17:04:33.657Z,15.57
2022-12-14T17:10:35.553Z,13.85
2022-12-14T17:16:38.714Z,17.58
2022-12-14T17:22:41.310Z,13.35
2022-12-14T17:28:43.097Z,12.93
2022-12-14T17:34:48.272Z,17.10
2022-12-14T17:40:51.225Z,20.75
2022-12-14T17:46:53.335Z,19.80
2022-12-14T17:52:55.328Z,14.63
2022-12-14T17:58:57.142Z,14.45
2022-12-14T18:04:59.559Z,17.40
2022-12-14T18:11:07.625Z,17.73
2022-12-14T18:17:14.327Z,19.75
2022-12-14T18:23:17.209Z,17.70
2022-12-14T18:29:19.010Z,17.00
2022-12-14T18:35:24.290Z,17.50
2022-12-14T18:41:27.457Z,19.83
2022-12-14T18:47:43.238Z,20.65
2022-12-14T18:53:45.121Z,22.88
2022-12-14T18:59:46.900Z,26.85
2022-12-14T19:05:48.877Z,21.00
2022-12-14T19:11:50.635Z,19.55
2022-12-14T19:17:53.013Z,19.92
2022-12-14T19:23:55.762Z,27.02
2022-12-14T19:29:57.597Z,28.98
2022-12-14T19:36:00.223Z,32.80
2022-12-14T19:42:02.081Z,30.77
2022-12-14T19:48:06.760Z,26.45
2022-12-14T19:54:12.039Z,18.80
2022-12-14T20:00:14.450Z,19.55
2022-12-14T20:06:16.412Z,20.67
2022-12-14T20:12:18.287Z,19.00
2022-12-14T20:18:21.570Z,19.92
2022-12-14T20:24:23.376Z,18.35
2022-12-14T20:30:25.405Z,21.20
2022-12-14T20:36:28.763Z,20.92
2022-12-14T20:42:30.780Z,23.17
2022-12-14T20:48:33.084Z,23.42
2022-12-14T20:54:34.950Z,20.08
2022-12-14T21:00:37.385Z,21.52
2022-12-14T21:06:41.929Z,19.88
2022-12-14T21:12:44.532Z,20.15
2022-12-14T21:18:46.422Z,23.67
2022-12-14T21:25:06.668Z,24.58
2022-12-14T21:31:15.595Z,24.92
2022-12-14T21:37:18.210Z,18.85
2022-12-14T21:43:20.066Z,20.08
2022-12-14T21:49:22.350Z,19.10
2022-12-14T21:55:24.175Z,20.20
2022-12-14T22:01:26.022Z,21.65
2022-12-14T22:07:33.192Z,23.15
2022-12-14T22:13:35.027Z,24.27
2022-12-14T22:19:36.907Z,26.77
2022-12-14T22:25:38.770Z,27.38
2022-12-14T22:31:41.115Z,27.55
2022-12-14T22:37:42.941Z,26.88
2022-12-14T22:43:45.052Z,27.70
2022-12-14T22:49:47.189Z,28.23
2022-12-14T22:55:49.942Z,28.30
2022-12-14T23:01:52.815Z,25.77
2022-12-14T23:07:55.763Z,27.52
2022-12-14T23:14:16.135Z,27.10
2022-12-14T23:20:36.647Z,25.95
2022-12-14T23:26:57.210Z,24.60
2022-12-14T23:33:17.429Z,24.00
2022-12-14T23:39:38.223Z,25.38
2022-12-14T23:45:59.010Z,25.08
2022-12-14T23:52:19.281Z,23.70
2022-12-14T23:58:39.868Z,22.70
